Pagrindinis puslapis
METAR-TAF:

METAR-TAF

Oro uostai :

Bračas, Kroatija

platuma: 43-17-09N, ilguma: 016-40-47E, Aukštis: 541 m

METAR: trūkstamas

Laikas: 21:30 (19:30 UTC)

Prognozė

Ataskaita buvo paskelbta 30 valandos ir 45 minutes, ne 12:45 UTC
Prognozė galioja nuo 18 metu 13 UTC su 19 metu 12 UTC
Vėjas 8 kt iš Rytų/Šiaurės Rytų
Matomumas 10 km arba daugiau
Mažai debesys ne aukštis 2500 ft
Tikimybė 30% :
Laikinai
nuo 19 metu 06 UTC su 19 metu 12 UTC
Matomumas: 4000 m
Mažai debesys ne aukštis 2000 ft, Liūtiniai kamuoliniai debesys.
Su prošvaistėmis ne aukštis 2300 ft
perkūnija, lietus
Tapsmas
nuo 19 metu 10 UTC su 19 metu 12 UTC
Vėjas 12 kt iš Šiaurės Rytų

TAF: LDSB 181245Z 1813/1912 07008KT 9999 FEW025 TX25/1813Z TN15/1911Z PROB30 TEMPO 1906/1912 4000 TSRA FEW020CB BKN023 BECMG 1910/1912 04012KT

Orai ataskaitas ir orų prognozės (METAR, TAF).

turimą stotys yra geltonos ir raudonos taškus žemėlapyje.

Perkelti pele per norėdami pamatyti stoties vardą.

Tada spustelėkite, norėdami matyti oro stebėjimo ir prognozės.

Norėdami pakeisti žemėlapį: spustelėkite ant žalios mygtukų su juodo kryžiaus žemyn,; žalią mygtuką su brūkšneliu, jei norite nutolinti; arba žalių rodyklių gretimoms žemėlapius.


METAR-TAF: